sensor_id;sensor_type;location;lat;lon;timestamp;pressure;altitude;pressure_sealevel;temperature;humidity
23427;BME280;41148;45.420;10.952;2023-01-27T00:00:56;100488.34;;;5.10;56.16
23427;BME280;41148;45.420;10.952;2023-01-27T00:03:24;100484.97;;;4.95;56.50
23427;BME280;41148;45.420;10.952;2023-01-27T00:05:51;100485.03;;;4.87;56.83
23427;BME280;41148;45.420;10.952;2023-01-27T00:08:19;100485.09;;;4.79;56.95
23427;BME280;41148;45.420;10.952;2023-01-27T00:10:47;100484.25;;;4.76;57.31
23427;BME280;41148;45.420;10.952;2023-01-27T00:13:34;100483.31;;;4.80;57.54
23427;BME280;41148;45.420;10.952;2023-01-27T00:16:01;100481.63;;;4.76;57.08
23427;BME280;41148;45.420;10.952;2023-01-27T00:18:29;100485.94;;;4.81;56.98
23427;BME280;41148;45.420;10.952;2023-01-27T00:20:56;100482.53;;;4.70;57.29
23427;BME280;41148;45.420;10.952;2023-01-27T00:23:42;100479.84;;;4.76;55.99
23427;BME280;41148;45.420;10.952;2023-01-27T00:26:29;100481.63;;;4.76;55.58
23427;BME280;41148;45.420;10.952;2023-01-27T00:28:56;100480.75;;;4.75;55.19
23427;BME280;41148;45.420;10.952;2023-01-27T00:31:23;100477.16;;;4.81;55.34
23427;BME280;41148;45.420;10.952;2023-01-27T00:34:09;100475.41;;;4.80;55.21
23427;BME280;41148;45.420;10.952;2023-01-27T00:36:40;100482.44;;;4.84;55.55
23427;BME280;41148;45.420;10.952;2023-01-27T00:39:09;100475.47;;;4.71;55.83
23427;BME280;41148;45.420;10.952;2023-01-27T00:41:37;100474.56;;;4.78;56.25
23427;BME280;41148;45.420;10.952;2023-01-27T00:44:06;100472.78;;;4.78;55.44
23427;BME280;41148;45.420;10.952;2023-01-27T00:46:33;100478.03;;;4.80;56.66
23427;BME280;41148;45.420;10.952;2023-01-27T00:49:01;100490.38;;;4.78;56.17
23427;BME280;41148;45.420;10.952;2023-01-27T00:51:29;100468.44;;;4.71;56.23
23427;BME280;41148;45.420;10.952;2023-01-27T00:53:57;100472.84;;;4.71;56.23
23427;BME280;41148;45.420;10.952;2023-01-27T00:56:25;100478.06;;;4.78;56.07
23427;BME280;41148;45.420;10.952;2023-01-27T00:58:54;100487.72;;;4.81;55.85
23427;BME280;41148;45.420;10.952;2023-01-27T01:01:22;100483.38;;;4.77;55.62
23427;BME280;41148;45.420;10.952;2023-01-27T01:03:50;100476.28;;;4.79;56.29
23427;BME280;41148;45.420;10.952;2023-01-27T01:06:18;100478.16;;;4.68;55.88
23427;BME280;41148;45.420;10.952;2023-01-27T01:08:47;100487.81;;;4.67;55.57
23427;BME280;41148;45.420;10.952;2023-01-27T01:11:17;100491.34;;;4.63;55.79
23427;BME280;41148;45.420;10.952;2023-01-27T01:13:45;100473.78;;;4.65;55.10
23427;BME280;41148;45.420;10.952;2023-01-27T01:16:21;100483.47;;;4.65;55.54
23427;BME280;41148;45.420;10.952;2023-01-27T01:18:49;100486.97;;;4.60;55.89
23427;BME280;41148;45.420;10.952;2023-01-27T01:21:16;100489.59;;;4.62;55.43
23427;BME280;41148;45.420;10.952;2023-01-27T01:23:44;100490.47;;;4.63;55.55
23427;BME280;41148;45.420;10.952;2023-01-27T01:26:14;100491.41;;;4.57;55.62
23427;BME280;41148;45.420;10.952;2023-01-27T01:28:43;100486.16;;;4.51;55.11
23427;BME280;41148;45.420;10.952;2023-01-27T01:31:14;100485.28;;;4.50;55.75
23427;BME280;41148;45.420;10.952;2023-01-27T01:33:42;100482.59;;;4.59;55.74
23427;BME280;41148;45.420;10.952;2023-01-27T01:36:12;100485.19;;;4.67;55.67
23427;BME280;41148;45.420;10.952;2023-01-27T01:38:40;100482.59;;;4.64;55.51
23427;BME280;41148;45.420;10.952;2023-01-27T01:41:26;100485.16;;;4.70;55.82
23427;BME280;41148;45.420;10.952;2023-01-27T01:43:54;100493.97;;;4.69;56.01
23427;BME280;41148;45.420;10.952;2023-01-27T01:46:21;100489.56;;;4.68;56.15
23427;BME280;41148;45.420;10.952;2023-01-27T01:48:53;100490.53;;;4.56;56.44
23427;BME280;41148;45.420;10.952;2023-01-27T01:51:31;100490.50;;;4.61;56.16
23427;BME280;41148;45.420;10.952;2023-01-27T01:56:46;100486.16;;;4.55;56.74
23427;BME280;41148;45.420;10.952;2023-01-27T01:59:22;100488.81;;;4.49;56.66
23427;BME280;41148;45.420;10.952;2023-01-27T02:01:55;100482.63;;;4.56;56.33
23427;BME280;41148;45.420;10.952;2023-01-27T02:04:26;100483.56;;;4.49;56.57
23427;BME280;41148;45.420;10.952;2023-01-27T02:07:15;100483.53;;;4.52;56.82
23427;BME280;41148;45.420;10.952;2023-01-27T02:09:44;100478.31;;;4.43;57.03
23427;BME280;41148;45.420;10.952;2023-01-27T02:12:12;100480.97;;;4.39;57.48
23427;BME280;41148;45.420;10.952;2023-01-27T02:14:40;100484.44;;;4.48;57.10
23427;BME280;41148;45.420;10.952;2023-01-27T02:17:09;100484.41;;;4.54;56.59
23427;BME280;41148;45.420;10.952;2023-01-27T02:19:48;100484.44;;;4.44;57.07
23427;BME280;41148;45.420;10.952;2023-01-27T02:22:29;100486.22;;;4.42;57.14
23427;BME280;41148;45.420;10.952;2023-01-27T02:25:06;100488.00;;;4.41;57.77
23427;BME280;41148;45.420;10.952;2023-01-27T02:27:36;100477.47;;;4.40;57.82
23427;BME280;41148;45.420;10.952;2023-01-27T02:30:04;100487.09;;;4.45;57.33
23427;BME280;41148;45.420;10.952;2023-01-27T02:32:31;100487.09;;;4.45;57.45
23427;BME280;41148;45.420;10.952;2023-01-27T02:35:00;100478.28;;;4.49;57.47
23427;BME280;41148;45.420;10.952;2023-01-27T02:37:29;100486.22;;;4.45;57.83
23427;BME280;41148;45.420;10.952;2023-01-27T02:39:59;100483.53;;;4.51;58.26
23427;BME280;41148;45.420;10.952;2023-01-27T02:42:28;100480.78;;;4.69;57.48
23427;BME280;41148;45.420;10.952;2023-01-27T02:44:55;100479.94;;;4.64;57.29
23427;BME280;41148;45.420;10.952;2023-01-27T02:47:24;100477.34;;;4.58;57.31
23427;BME280;41148;45.420;10.952;2023-01-27T02:49:51;100473.78;;;4.60;57.91
23427;BME280;41148;45.420;10.952;2023-01-27T02:52:21;100472.91;;;4.60;57.90
23427;BME280;41148;45.420;10.952;2023-01-27T02:54:51;100477.44;;;4.43;58.10
23427;BME280;41148;45.420;10.952;2023-01-27T02:57:18;100474.72;;;4.52;58.26
23427;BME280;41148;45.420;10.952;2023-01-27T03:00:03;100471.28;;;4.45;58.62
23427;BME280;41148;45.420;10.952;2023-01-27T03:02:32;100472.19;;;4.40;58.47
23427;BME280;41148;45.420;10.952;2023-01-27T03:04:59;100465.16;;;4.40;58.21
23427;BME280;41148;45.420;10.952;2023-01-27T03:07:27;100475.66;;;4.46;58.61
23427;BME280;41148;45.420;10.952;2023-01-27T03:09:54;100474.72;;;4.53;58.16
23427;BME280;41148;45.420;10.952;2023-01-27T03:12:22;100475.63;;;4.51;58.54
23427;BME280;41148;45.420;10.952;2023-01-27T03:14:51;100473.84;;;4.53;58.42
23427;BME280;41148;45.420;10.952;2023-01-27T03:17:38;100457.25;;;4.39;59.12
23427;BME280;41148;45.420;10.952;2023-01-27T03:20:24;100459.03;;;4.37;59.12
23427;BME280;41148;45.420;10.952;2023-01-27T03:22:52;100470.41;;;4.40;59.18
23427;BME280;41148;45.420;10.952;2023-01-27T03:25:21;100469.50;;;4.43;59.76
23427;BME280;41148;45.420;10.952;2023-01-27T03:27:50;100461.59;;;4.47;60.16
23427;BME280;41148;45.420;10.952;2023-01-27T03:30:41;100466.81;;;4.52;59.46
23427;BME280;41148;45.420;10.952;2023-01-27T03:33:19;100473.84;;;4.53;59.41
23427;BME280;41148;45.420;10.952;2023-01-27T03:35:56;100470.31;;;4.52;60.01
23427;BME280;41148;45.420;10.952;2023-01-27T03:38:46;100467.69;;;4.52;60.19
23427;BME280;41148;45.420;10.952;2023-01-27T03:41:32;100479.13;;;4.51;59.67
23427;BME280;41148;45.420;10.952;2023-01-27T03:44:20;100471.16;;;4.59;60.52
23427;BME280;41148;45.420;10.952;2023-01-27T03:47:06;100471.09;;;4.68;58.45
23427;BME280;41148;45.420;10.952;2023-01-27T03:49:34;100457.84;;;4.77;57.94
23427;BME280;41148;45.420;10.952;2023-01-27T03:52:01;100469.38;;;4.66;57.92
23427;BME280;41148;45.420;10.952;2023-01-27T03:54:29;100473.78;;;4.65;57.51
23427;BME280;41148;45.420;10.952;2023-01-27T03:56:56;100467.59;;;4.63;57.75
23427;BME280;41148;45.420;10.952;2023-01-27T03:59:23;100474.66;;;4.64;57.56
23427;BME280;41148;45.420;10.952;2023-01-27T04:01:51;100463.22;;;4.67;57.46
23427;BME280;41148;45.420;10.952;2023-01-27T04:04:18;100470.19;;;4.71;57.27
23427;BME280;41148;45.420;10.952;2023-01-27T04:07:04;100468.47;;;4.68;57.41
23427;BME280;41148;45.420;10.952;2023-01-27T04:09:35;100472.06;;;4.58;55.31
23427;BME280;41148;45.420;10.952;2023-01-27T04:12:04;100472.19;;;4.40;55.69
23427;BME280;41148;45.420;10.952;2023-01-27T04:14:34;100474.78;;;4.43;56.32
23427;BME280;41148;45.420;10.952;2023-01-27T04:17:06;100476.47;;;4.56;55.33
23427;BME280;41148;45.420;10.952;2023-01-27T04:19:37;100471.16;;;4.59;55.15
23427;BME280;41148;45.420;10.952;2023-01-27T04:22:05;100464.16;;;4.56;54.95
23427;BME280;41148;45.420;10.952;2023-01-27T04:24:33;100453.59;;;4.53;54.66
23427;BME280;41148;45.420;10.952;2023-01-27T04:27:03;100458.97;;;4.46;55.15
23427;BME280;41148;45.420;10.952;2023-01-27T04:29:34;100461.59;;;4.46;54.39
23427;BME280;41148;45.420;10.952;2023-01-27T04:32:03;100463.34;;;4.47;54.30
23427;BME280;41148;45.420;10.952;2023-01-27T04:34:32;100464.22;;;4.47;54.51
23427;BME280;41148;45.420;10.952;2023-01-27T04:37:00;100462.47;;;4.43;54.88
23427;BME280;41148;45.420;10.952;2023-01-27T04:39:29;100467.72;;;4.48;54.73
23427;BME280;41148;45.420;10.952;2023-01-27T04:41:57;100462.53;;;4.34;55.00
23427;BME280;41148;45.420;10.952;2023-01-27T04:44:24;100459.03;;;4.35;54.74
23427;BME280;41148;45.420;10.952;2023-01-27T04:46:52;100470.47;;;4.36;54.33
23427;BME280;41148;45.420;10.952;2023-01-27T04:49:22;100473.97;;;4.31;54.37
23427;BME280;41148;45.420;10.952;2023-01-27T04:51:53;100466.06;;;4.35;54.54
23427;BME280;41148;45.420;10.952;2023-01-27T04:54:21;100468.69;;;4.36;54.81
23427;BME280;41148;45.420;10.952;2023-01-27T04:56:59;100476.63;;;4.35;55.01
23427;BME280;41148;45.420;10.952;2023-01-27T04:59:27;100474.00;;;4.35;54.17
23427;BME280;41148;45.420;10.952;2023-01-27T05:01:54;100487.13;;;4.41;54.25
23427;BME280;41148;45.420;10.952;2023-01-27T05:04:22;100485.38;;;4.40;53.87
23427;BME280;41148;45.420;10.952;2023-01-27T05:06:49;100478.38;;;4.32;54.04
23427;BME280;41148;45.420;10.952;2023-01-27T05:09:17;100483.72;;;4.25;54.14
23427;BME280;41148;45.420;10.952;2023-01-27T05:11:44;100488.06;;;4.30;54.97
23427;BME280;41148;45.420;10.952;2023-01-27T05:14:11;100487.16;;;4.33;54.94
23427;BME280;41148;45.420;10.952;2023-01-27T05:16:40;100500.38;;;4.35;54.54
23427;BME280;41148;45.420;10.952;2023-01-27T05:19:08;100489.78;;;4.39;54.35
23427;BME280;41148;45.420;10.952;2023-01-27T05:21:35;100496.81;;;4.39;54.37
23427;BME280;41148;45.420;10.952;2023-01-27T05:24:03;100495.97;;;4.35;54.29
23427;BME280;41148;45.420;10.952;2023-01-27T05:26:30;100500.38;;;4.35;53.70
23427;BME280;41148;45.420;10.952;2023-01-27T05:28:58;100500.34;;;4.36;54.15
23427;BME280;41148;45.420;10.952;2023-01-27T05:31:28;100503.84;;;4.38;53.89
23427;BME280;41148;45.420;10.952;2023-01-27T05:33:58;100506.56;;;4.26;53.72
23427;BME280;41148;45.420;10.952;2023-01-27T05:36:26;100507.44;;;4.23;53.97
23427;BME280;41148;45.420;10.952;2023-01-27T05:38:54;100498.53;;;4.41;54.30
23427;BME280;41148;45.420;10.952;2023-01-27T05:41:22;100502.88;;;4.50;53.85
23427;BME280;41148;45.420;10.952;2023-01-27T05:43:54;100510.75;;;4.59;54.10
23427;BME280;41148;45.420;10.952;2023-01-27T05:46:27;100511.69;;;4.49;53.96
23427;BME280;41148;45.420;10.952;2023-01-27T05:48:58;100514.31;;;4.55;53.50
23427;BME280;41148;45.420;10.952;2023-01-27T05:51:29;100511.75;;;4.38;53.87
23427;BME280;41148;45.420;10.952;2023-01-27T05:53:57;100519.69;;;4.34;53.11
23427;BME280;41148;45.420;10.952;2023-01-27T05:56:24;100519.63;;;4.46;53.18
23427;BME280;41148;45.420;10.952;2023-01-27T05:58:54;100525.81;;;4.34;53.45
23427;BME280;41148;45.420;10.952;2023-01-27T06:01:23;100532.00;;;4.31;52.97
23427;BME280;41148;45.420;10.952;2023-01-27T06:03:51;100531.97;;;4.39;53.93
23427;BME280;41148;45.420;10.952;2023-01-27T06:06:21;100527.53;;;4.43;53.92
23427;BME280;41148;45.420;10.952;2023-01-27T06:08:49;100541.53;;;4.60;52.63
23427;BME280;41148;45.420;10.952;2023-01-27T06:11:17;100537.16;;;4.51;51.48
23427;BME280;41148;45.420;10.952;2023-01-27T06:13:46;100524.94;;;4.38;51.88
23427;BME280;41148;45.420;10.952;2023-01-27T06:16:16;100529.31;;;4.42;51.23
23427;BME280;41148;45.420;10.952;2023-01-27T06:18:45;100538.13;;;4.44;51.10
23427;BME280;41148;45.420;10.952;2023-01-27T06:21:13;100531.16;;;4.29;52.29
23427;BME280;41148;45.420;10.952;2023-01-27T06:23:42;100545.16;;;4.38;52.07
23427;BME280;41148;45.420;10.952;2023-01-27T06:26:12;100531.06;;;4.48;51.61
23427;BME280;41148;45.420;10.952;2023-01-27T06:28:41;100535.41;;;4.50;50.69
23427;BME280;41148;45.420;10.952;2023-01-27T06:31:15;100537.34;;;4.25;50.54
23427;BME280;41148;45.420;10.952;2023-01-27T06:33:43;100538.19;;;4.29;51.09
23427;BME280;41148;45.420;10.952;2023-01-27T06:36:16;100545.25;;;4.25;51.45
23427;BME280;41148;45.420;10.952;2023-01-27T06:38:44;100540.81;;;4.35;52.01
23427;BME280;41148;45.420;10.952;2023-01-27T06:41:11;100540.78;;;4.37;51.30
23427;BME280;41148;45.420;10.952;2023-01-27T06:43:39;100538.94;;;4.49;50.30
23427;BME280;41148;45.420;10.952;2023-01-27T06:46:06;100540.72;;;4.43;50.15
23427;BME280;41148;45.420;10.952;2023-01-27T06:48:34;100547.75;;;4.44;50.82
23427;BME280;41148;45.420;10.952;2023-01-27T06:51:01;100546.94;;;4.37;50.51
23427;BME280;41148;45.420;10.952;2023-01-27T06:53:29;100550.41;;;4.41;51.05
23427;BME280;41148;45.420;10.952;2023-01-27T06:55:59;100550.47;;;4.35;50.77
23427;BME280;41148;45.420;10.952;2023-01-27T06:58:28;100550.47;;;4.35;51.77
23427;BME280;41148;45.420;10.952;2023-01-27T07:00:55;100558.31;;;4.42;51.25
23427;BME280;41148;45.420;10.952;2023-01-27T07:03:23;100562.69;;;4.55;50.83
23427;BME280;41148;45.420;10.952;2023-01-27T07:05:51;100557.31;;;4.68;51.57
23427;BME280;41148;45.420;10.952;2023-01-27T07:08:19;100561.69;;;4.72;51.20
23427;BME280;41148;45.420;10.952;2023-01-27T07:10:46;100563.50;;;4.62;51.76
23427;BME280;41148;45.420;10.952;2023-01-27T07:13:14;100560.91;;;4.53;51.78
23427;BME280;41148;45.420;10.952;2023-01-27T07:15:41;100556.56;;;4.43;51.32
23427;BME280;41148;45.420;10.952;2023-01-27T07:18:10;100562.72;;;4.48;51.49
23427;BME280;41148;45.420;10.952;2023-01-27T07:20:39;100564.47;;;4.46;51.43
23427;BME280;41148;45.420;10.952;2023-01-27T07:23:08;100563.53;;;4.53;51.58
23427;BME280;41148;45.420;10.952;2023-01-27T07:25:36;100568.88;;;4.47;51.74
23427;BME280;41148;45.420;10.952;2023-01-27T07:28:04;100573.22;;;4.55;50.77
23427;BME280;41148;45.420;10.952;2023-01-27T07:30:35;100574.16;;;4.47;51.16
23427;BME280;41148;45.420;10.952;2023-01-27T07:33:07;100576.72;;;4.53;51.01
23427;BME280;41148;45.420;10.952;2023-01-27T07:35:35;100580.31;;;4.40;51.09
23427;BME280;41148;45.420;10.952;2023-01-27T07:38:08;100579.41;;;4.50;50.51
23427;BME280;41148;45.420;10.952;2023-01-27T07:40:35;100581.13;;;4.55;50.66
23427;BME280;41148;45.420;10.952;2023-01-27T07:43:03;100584.63;;;4.57;51.58
23427;BME280;41148;45.420;10.952;2023-01-27T07:45:33;100581.94;;;4.68;50.56
23427;BME280;41148;45.420;10.952;2023-01-27T07:48:02;100588.94;;;4.72;50.54
23427;BME280;41148;45.420;10.952;2023-01-27T07:50:30;100588.94;;;4.75;50.56
23427;BME280;41148;45.420;10.952;2023-01-27T07:53:02;100587.13;;;4.86;49.91
23427;BME280;41148;45.420;10.952;2023-01-27T07:55:30;100590.69;;;4.78;50.19
23427;BME280;41148;45.420;10.952;2023-01-27T07:57:58;100587.22;;;4.70;50.62
23427;BME280;41148;45.420;10.952;2023-01-27T08:00:26;100584.59;;;4.68;50.60
23427;BME280;41148;45.420;10.952;2023-01-27T08:02:55;100582.81;;;4.70;50.74
23427;BME280;41148;45.420;10.952;2023-01-27T08:05:23;100589.81;;;4.73;50.69
23427;BME280;41148;45.420;10.952;2023-01-27T08:07:53;100592.41;;;4.82;50.21
23427;BME280;41148;45.420;10.952;2023-01-27T08:10:22;100582.75;;;4.84;50.06
23427;BME280;41148;45.420;10.952;2023-01-27T08:12:49;100583.53;;;4.97;50.07
23427;BME280;41148;45.420;10.952;2023-01-27T08:15:16;100582.63;;;5.02;49.95
23427;BME280;41148;45.420;10.952;2023-01-27T08:17:52;100594.09;;;4.92;50.32
23427;BME280;41148;45.420;10.952;2023-01-27T08:20:21;100588.00;;;4.81;49.57
23427;BME280;41148;45.420;10.952;2023-01-27T08:22:48;100586.22;;;4.87;50.43
23427;BME280;41148;45.420;10.952;2023-01-27T08:25:16;100595.91;;;4.82;50.17
23427;BME280;41148;45.420;10.952;2023-01-27T08:27:43;100602.97;;;4.82;50.20
23427;BME280;41148;45.420;10.952;2023-01-27T08:30:10;100603.78;;;4.92;49.45
23427;BME280;41148;45.420;10.952;2023-01-27T08:32:38;100599.34;;;4.98;50.05
23427;BME280;41148;45.420;10.952;2023-01-27T08:35:06;100597.53;;;5.08;50.51
23427;BME280;41148;45.420;10.952;2023-01-27T08:37:33;100595.72;;;5.11;49.74
23427;BME280;41148;45.420;10.952;2023-01-27T08:40:01;100598.38;;;5.13;49.72
23427;BME280;41148;45.420;10.952;2023-01-27T08:42:28;100597.50;;;5.11;49.53
23427;BME280;41148;45.420;10.952;2023-01-27T08:44:56;100599.19;;;5.23;50.18
23427;BME280;41148;45.420;10.952;2023-01-27T08:47:24;100600.97;;;5.22;50.17
23427;BME280;41148;45.420;10.952;2023-01-27T08:49:52;100596.47;;;5.32;50.51
23427;BME280;41148;45.420;10.952;2023-01-27T08:52:21;100604.38;;;5.35;49.83
23427;BME280;41148;45.420;10.952;2023-01-27T08:54:49;100606.97;;;5.42;49.72
23427;BME280;41148;45.420;10.952;2023-01-27T08:57:17;100613.03;;;5.52;49.27
23427;BME280;41148;45.420;10.952;2023-01-27T08:59:44;100611.19;;;5.59;48.50
23427;BME280;41148;45.420;10.952;2023-01-27T09:02:12;100603.56;;;5.25;48.46
23427;BME280;41148;45.420;10.952;2023-01-27T09:04:40;100605.34;;;5.23;49.08
23427;BME280;41148;45.420;10.952;2023-01-27T09:07:10;100612.41;;;5.23;50.92
23427;BME280;41148;45.420;10.952;2023-01-27T09:09:38;100606.13;;;5.34;54.89
23427;BME280;41148;45.420;10.952;2023-01-27T09:12:05;100610.50;;;5.38;57.48
23427;BME280;41148;45.420;10.952;2023-01-27T09:14:33;100602.63;;;5.34;57.98
23427;BME280;41148;45.420;10.952;2023-01-27T09:17:00;100604.38;;;5.33;57.18
23427;BME280;41148;45.420;10.952;2023-01-27T09:19:28;100609.78;;;5.21;51.26
23427;BME280;41148;45.420;10.952;2023-01-27T09:21:55;100616.75;;;5.31;51.13
23427;BME280;41148;45.420;10.952;2023-01-27T09:24:23;100615.06;;;5.18;48.76
23427;BME280;41148;45.420;10.952;2023-01-27T09:26:50;100617.56;;;5.36;49.37
23427;BME280;41148;45.420;10.952;2023-01-27T09:29:18;100619.28;;;5.39;48.50
23427;BME280;41148;45.420;10.952;2023-01-27T09:31:45;100614.81;;;5.50;47.96
23427;BME280;41148;45.420;10.952;2023-01-27T09:34:12;100639.41;;;5.60;48.29
23427;BME280;41148;45.420;10.952;2023-01-27T09:36:44;100628.81;;;5.63;48.32
23427;BME280;41148;45.420;10.952;2023-01-27T09:39:14;100635.19;;;5.34;48.51
23427;BME280;41148;45.420;10.952;2023-01-27T09:45:42;100635.16;;;5.37;49.02
23427;BME280;41148;45.420;10.952;2023-01-27T09:48:31;100638.50;;;5.59;48.96
23427;BME280;41148;45.420;10.952;2023-01-27T09:56:56;100638.41;;;5.71;48.81
23427;BME280;41148;45.420;10.952;2023-01-27T10:07:57;100640.44;;;5.39;48.86
23427;BME280;41148;45.420;10.952;2023-01-27T10:10:32;100638.69;;;5.41;49.07
23427;BME280;41148;45.420;10.952;2023-01-27T10:24:29;100635.81;;;5.65;47.33
23427;BME280;41148;45.420;10.952;2023-01-27T10:27:16;100646.28;;;5.78;46.27
23427;BME280;41148;45.420;10.952;2023-01-27T10:32:25;100624.28;;;5.75;46.83
23427;BME280;41148;45.420;10.952;2023-01-27T10:37:39;100627.00;;;5.66;46.69
23427;BME280;41148;45.420;10.952;2023-01-27T10:40:34;100630.41;;;5.78;46.31
23427;BME280;41148;45.420;10.952;2023-01-27T10:43:22;100623.28;;;5.87;46.10
23427;BME280;41148;45.420;10.952;2023-01-27T10:46:20;100633.06;;;5.76;46.89
23427;BME280;41148;45.420;10.952;2023-01-27T10:49:03;100614.66;;;5.70;46.53
23427;BME280;41148;45.420;10.952;2023-01-27T10:51:50;100619.75;;;5.91;46.86
23427;BME280;41148;45.420;10.952;2023-01-27T10:54:33;100632.03;;;5.95;46.53
23427;BME280;41148;45.420;10.952;2023-01-27T10:57:08;100624.19;;;5.85;45.70
23427;BME280;41148;45.420;10.952;2023-01-27T11:00:04;100625.94;;;5.90;45.91
23427;BME280;41148;45.420;10.952;2023-01-27T11:03:12;100626.81;;;5.91;45.15
23427;BME280;41148;45.420;10.952;2023-01-27T11:05:45;100625.19;;;5.73;45.34
23427;BME280;41148;45.420;10.952;2023-01-27T11:08:17;100617.28;;;5.71;46.00
23427;BME280;41148;45.420;10.952;2023-01-27T11:10:47;100616.31;;;5.80;46.37
23427;BME280;41148;45.420;10.952;2023-01-27T11:13:34;100618.88;;;5.91;46.03
23427;BME280;41148;45.420;10.952;2023-01-27T11:16:03;100615.28;;;5.96;45.64
23427;BME280;41148;45.420;10.952;2023-01-27T11:18:35;100609.78;;;6.15;45.54
23427;BME280;41148;45.420;10.952;2023-01-27T11:21:06;100612.59;;;6.02;44.47
23427;BME280;41148;45.420;10.952;2023-01-27T11:23:41;100617.75;;;6.13;44.45
23427;BME280;41148;45.420;10.952;2023-01-27T11:26:37;100603.00;;;5.86;44.54
23427;BME280;41148;45.420;10.952;2023-01-27T11:34:59;100594.00;;;6.10;44.74
23427;BME280;41148;45.420;10.952;2023-01-27T11:37:38;100591.28;;;6.15;45.29
23427;BME280;41148;45.420;10.952;2023-01-27T11:40:20;100590.28;;;6.25;44.87
23427;BME280;41148;45.420;10.952;2023-01-27T11:42:48;100577.47;;;6.60;44.11
23427;BME280;41148;45.420;10.952;2023-01-27T11:45:19;100580.28;;;6.50;43.64
23427;BME280;41148;45.420;10.952;2023-01-27T11:47:51;100577.91;;;6.27;43.58
23427;BME280;41148;45.420;10.952;2023-01-27T11:50:20;100562.59;;;6.52;43.99
23427;BME280;41148;45.420;10.952;2023-01-27T11:52:51;100574.09;;;6.49;44.17
23427;BME280;41148;45.420;10.952;2023-01-27T11:55:25;100565.03;;;6.66;44.47
23427;BME280;41148;45.420;10.952;2023-01-27T11:58:09;100561.78;;;6.48;43.82
23427;BME280;41148;45.420;10.952;2023-01-27T12:00:42;100566.81;;;6.65;44.06
23427;BME280;41148;45.420;10.952;2023-01-27T12:03:18;100562.41;;;6.67;43.46
23427;BME280;41148;45.420;10.952;2023-01-27T12:05:53;100560.59;;;6.69;44.04
23427;BME280;41148;45.420;10.952;2023-01-27T12:11:16;100554.44;;;6.66;44.23
23427;BME280;41148;45.420;10.952;2023-01-27T12:13:58;100551.88;;;6.61;42.99
23427;BME280;41148;45.420;10.952;2023-01-27T12:21:50;100542.28;;;6.52;43.51
23427;BME280;41148;45.420;10.952;2023-01-27T12:24:26;100533.31;;;6.63;43.43
23427;BME280;41148;45.420;10.952;2023-01-27T12:26:55;100531.41;;;6.74;43.55
23427;BME280;41148;45.420;10.952;2023-01-27T12:29:32;100529.56;;;6.79;43.90
23427;BME280;41148;45.420;10.952;2023-01-27T12:32:13;100524.16;;;6.86;44.31
23427;BME280;41148;45.420;10.952;2023-01-27T12:34:45;100528.53;;;6.89;44.02
23427;BME280;41148;45.420;10.952;2023-01-27T12:37:21;100518.72;;;6.94;44.12
23427;BME280;41148;45.420;10.952;2023-01-27T12:39:54;100511.66;;;6.96;43.37
23427;BME280;41148;45.420;10.952;2023-01-27T12:42:40;100511.72;;;6.92;42.56
23427;BME280;41148;45.420;10.952;2023-01-27T12:47:55;100509.25;;;6.79;43.68
23427;BME280;41148;45.420;10.952;2023-01-27T12:50:30;100508.09;;;6.97;43.70
23427;BME280;41148;45.420;10.952;2023-01-27T12:55:39;100508.72;;;7.11;43.82
23427;BME280;41148;45.420;10.952;2023-01-27T12:58:22;100499.75;;;7.20;43.21
23427;BME280;41148;45.420;10.952;2023-01-27T13:00:54;100498.06;;;7.16;42.76
23427;BME280;41148;45.420;10.952;2023-01-27T13:03:22;100482.09;;;7.21;42.37
23427;BME280;41148;45.420;10.952;2023-01-27T13:05:54;100485.44;;;7.30;42.52
23427;BME280;41148;45.420;10.952;2023-01-27T13:08:25;100484.06;;;7.09;43.21
23427;BME280;41148;45.420;10.952;2023-01-27T13:10:56;100492.09;;;7.05;43.68
23427;BME280;41148;45.420;10.952;2023-01-27T13:13:26;100493.78;;;7.09;43.04
23427;BME280;41148;45.420;10.952;2023-01-27T13:16:15;100495.50;;;7.11;43.07
23427;BME280;41148;45.420;10.952;2023-01-27T13:18:54;100497.31;;;7.08;43.42
23427;BME280;41148;45.420;10.952;2023-01-27T13:21:31;100498.50;;;6.90;43.05
23427;BME280;41148;45.420;10.952;2023-01-27T13:24:04;100490.59;;;6.87;43.71
23427;BME280;41148;45.420;10.952;2023-01-27T13:26:37;100496.81;;;6.86;44.22
23427;BME280;41148;45.420;10.952;2023-01-27T13:29:11;100488.78;;;6.91;43.93
23427;BME280;41148;45.420;10.952;2023-01-27T13:31:57;100483.66;;;6.80;44.28
23427;BME280;41148;45.420;10.952;2023-01-27T13:34:45;100487.19;;;6.79;44.70
23427;BME280;41148;45.420;10.952;2023-01-27T13:37:36;100490.66;;;6.82;44.74
23427;BME280;41148;45.420;10.952;2023-01-27T13:40:18;100482.25;;;7.11;43.96
23427;BME280;41148;45.420;10.952;2023-01-27T13:42:55;100487.09;;;6.86;44.15
23427;BME280;41148;45.420;10.952;2023-01-27T13:45:36;100497.03;;;6.71;44.20
23427;BME280;41148;45.420;10.952;2023-01-27T13:48:16;100476.03;;;6.60;44.03
23427;BME280;41148;45.420;10.952;2023-01-27T13:50:49;100493.72;;;6.56;44.27
23427;BME280;41148;45.420;10.952;2023-01-27T13:53:19;100488.22;;;6.70;44.74
23427;BME280;41148;45.420;10.952;2023-01-27T13:55:58;100482.69;;;6.84;44.99
23427;BME280;41148;45.420;10.952;2023-01-27T14:01:23;100492.25;;;6.96;43.91
23427;BME280;41148;45.420;10.952;2023-01-27T14:09:43;100494.47;;;6.65;45.08
23427;BME280;41148;45.420;10.952;2023-01-27T14:12:17;100495.28;;;6.70;45.49
23427;BME280;41148;45.420;10.952;2023-01-27T14:14:56;100497.13;;;6.66;45.19
23427;BME280;41148;45.420;10.952;2023-01-27T14:17:38;100492.59;;;6.71;44.68
23427;BME280;41148;45.420;10.952;2023-01-27T14:22:49;100491.63;;;6.78;44.96